sensor_id;sensor_type;location;lat;lon;timestamp;P1;durP1;ratioP1;P2;durP2;ratioP2
51664;SDS011;37751;52.408;12.536;2022-10-24T00:01:09;8.63;;;3.72;;
51664;SDS011;37751;52.408;12.536;2022-10-24T00:03:38;7.90;;;3.80;;
51664;SDS011;37751;52.408;12.536;2022-10-24T00:06:06;6.80;;;3.78;;
51664;SDS011;37751;52.408;12.536;2022-10-24T00:08:34;10.73;;;3.90;;
51664;SDS011;37751;52.408;12.536;2022-10-24T00:11:02;6.82;;;3.08;;
51664;SDS011;37751;52.408;12.536;2022-10-24T00:13:47;5.75;;;3.40;;
51664;SDS011;37751;52.408;12.536;2022-10-24T00:16:15;8.95;;;3.47;;
51664;SDS011;37751;52.408;12.536;2022-10-24T00:18:42;6.72;;;3.67;;
51664;SDS011;37751;52.408;12.536;2022-10-24T00:21:09;7.10;;;3.65;;
51664;SDS011;37751;52.408;12.536;2022-10-24T00:23:36;7.78;;;3.92;;
51664;SDS011;37751;52.408;12.536;2022-10-24T00:26:03;8.25;;;4.30;;
51664;SDS011;37751;52.408;12.536;2022-10-24T00:28:31;6.03;;;3.90;;
51664;SDS011;37751;52.408;12.536;2022-10-24T00:31:00;7.90;;;4.47;;
51664;SDS011;37751;52.408;12.536;2022-10-24T00:33:27;12.63;;;4.25;;
51664;SDS011;37751;52.408;12.536;2022-10-24T00:35:54;6.80;;;3.85;;
51664;SDS011;37751;52.408;12.536;2022-10-24T00:38:21;7.55;;;4.53;;
51664;SDS011;37751;52.408;12.536;2022-10-24T00:40:47;9.45;;;4.03;;
51664;SDS011;37751;52.408;12.536;2022-10-24T00:43:15;11.23;;;3.95;;
51664;SDS011;37751;52.408;12.536;2022-10-24T00:45:55;7.30;;;3.83;;
51664;SDS011;37751;52.408;12.536;2022-10-24T00:48:37;10.57;;;3.88;;
51664;SDS011;37751;52.408;12.536;2022-10-24T00:51:18;5.88;;;3.53;;
51664;SDS011;37751;52.408;12.536;2022-10-24T00:53:53;11.25;;;4.07;;
51664;SDS011;37751;52.408;12.536;2022-10-24T00:56:25;9.00;;;4.07;;
51664;SDS011;37751;52.408;12.536;2022-10-24T00:58:56;7.15;;;3.78;;
51664;SDS011;37751;52.408;12.536;2022-10-24T01:01:24;10.20;;;4.40;;
51664;SDS011;37751;52.408;12.536;2022-10-24T01:03:51;7.45;;;4.18;;
51664;SDS011;37751;52.408;12.536;2022-10-24T01:09:18;8.48;;;4.10;;
51664;SDS011;37751;52.408;12.536;2022-10-24T01:12:22;11.52;;;3.85;;
51664;SDS011;37751;52.408;12.536;2022-10-24T01:15:22;11.15;;;4.30;;
51664;SDS011;37751;52.408;12.536;2022-10-24T01:18:11;9.48;;;3.85;;
51664;SDS011;37751;52.408;12.536;2022-10-24T01:21:14;6.38;;;4.22;;
51664;SDS011;37751;52.408;12.536;2022-10-24T01:38:24;8.57;;;4.45;;
51664;SDS011;37751;52.408;12.536;2022-10-24T01:41:00;8.35;;;3.70;;
51664;SDS011;37751;52.408;12.536;2022-10-24T01:43:51;12.63;;;4.47;;
51664;SDS011;37751;52.408;12.536;2022-10-24T01:46:22;5.22;;;3.85;;
51664;SDS011;37751;52.408;12.536;2022-10-24T01:48:57;10.88;;;4.10;;
51664;SDS011;37751;52.408;12.536;2022-10-24T01:51:30;5.78;;;4.10;;
51664;SDS011;37751;52.408;12.536;2022-10-24T01:53:59;6.43;;;3.72;;
51664;SDS011;37751;52.408;12.536;2022-10-24T01:56:26;9.75;;;4.13;;
51664;SDS011;37751;52.408;12.536;2022-10-24T01:59:02;13.75;;;4.57;;
51664;SDS011;37751;52.408;12.536;2022-10-24T02:01:34;4.75;;;4.05;;
51664;SDS011;37751;52.408;12.536;2022-10-24T02:04:05;9.13;;;4.47;;
51664;SDS011;37751;52.408;12.536;2022-10-24T02:06:36;9.45;;;4.45;;
51664;SDS011;37751;52.408;12.536;2022-10-24T02:09:11;7.32;;;4.15;;
51664;SDS011;37751;52.408;12.536;2022-10-24T02:11:43;9.75;;;4.53;;
51664;SDS011;37751;52.408;12.536;2022-10-24T02:14:13;9.40;;;4.18;;
51664;SDS011;37751;52.408;12.536;2022-10-24T02:17:01;8.75;;;4.63;;
51664;SDS011;37751;52.408;12.536;2022-10-24T02:19:29;6.93;;;4.57;;
51664;SDS011;37751;52.408;12.536;2022-10-24T02:24:51;7.47;;;4.97;;
51664;SDS011;37751;52.408;12.536;2022-10-24T02:27:42;8.85;;;4.25;;
51664;SDS011;37751;52.408;12.536;2022-10-24T02:30:29;9.80;;;4.68;;
51664;SDS011;37751;52.408;12.536;2022-10-24T02:33:02;7.22;;;3.85;;
51664;SDS011;37751;52.408;12.536;2022-10-24T02:35:30;9.18;;;3.97;;
51664;SDS011;37751;52.408;12.536;2022-10-24T02:38:06;14.68;;;4.70;;
51664;SDS011;37751;52.408;12.536;2022-10-24T02:40:57;10.20;;;4.20;;
51664;SDS011;37751;52.408;12.536;2022-10-24T02:43:27;9.65;;;4.00;;
51664;SDS011;37751;52.408;12.536;2022-10-24T02:45:55;6.40;;;3.92;;
51664;SDS011;37751;52.408;12.536;2022-10-24T02:48:27;7.95;;;4.20;;
51664;SDS011;37751;52.408;12.536;2022-10-24T02:51:01;7.80;;;4.60;;
51664;SDS011;37751;52.408;12.536;2022-10-24T02:53:28;10.65;;;3.85;;
51664;SDS011;37751;52.408;12.536;2022-10-24T02:55:55;9.73;;;4.95;;
51664;SDS011;37751;52.408;12.536;2022-10-24T02:58:21;6.47;;;4.22;;
51664;SDS011;37751;52.408;12.536;2022-10-24T03:00:48;12.15;;;4.53;;
51664;SDS011;37751;52.408;12.536;2022-10-24T03:03:15;7.18;;;4.30;;
51664;SDS011;37751;52.408;12.536;2022-10-24T03:05:41;8.48;;;3.95;;
51664;SDS011;37751;52.408;12.536;2022-10-24T03:08:08;10.27;;;3.85;;
51664;SDS011;37751;52.408;12.536;2022-10-24T03:10:34;9.93;;;4.47;;
51664;SDS011;37751;52.408;12.536;2022-10-24T03:13:01;11.35;;;3.92;;
51664;SDS011;37751;52.408;12.536;2022-10-24T03:15:29;8.25;;;3.92;;
51664;SDS011;37751;52.408;12.536;2022-10-24T03:17:55;67.40;;;9.23;;
51664;SDS011;37751;52.408;12.536;2022-10-24T03:20:22;7.20;;;3.88;;
51664;SDS011;37751;52.408;12.536;2022-10-24T03:22:49;9.55;;;4.47;;
51664;SDS011;37751;52.408;12.536;2022-10-24T03:25:16;13.48;;;5.82;;
51664;SDS011;37751;52.408;12.536;2022-10-24T03:27:43;10.90;;;5.13;;
51664;SDS011;37751;52.408;12.536;2022-10-24T03:30:10;10.35;;;4.65;;
51664;SDS011;37751;52.408;12.536;2022-10-24T03:32:37;8.60;;;4.10;;
51664;SDS011;37751;52.408;12.536;2022-10-24T03:35:03;7.97;;;3.30;;
51664;SDS011;37751;52.408;12.536;2022-10-24T03:37:33;5.32;;;3.72;;
51664;SDS011;37751;52.408;12.536;2022-10-24T03:39:59;6.57;;;3.72;;
51664;SDS011;37751;52.408;12.536;2022-10-24T03:42:26;10.50;;;4.32;;
51664;SDS011;37751;52.408;12.536;2022-10-24T03:44:53;14.57;;;4.50;;
51664;SDS011;37751;52.408;12.536;2022-10-24T03:47:20;8.95;;;3.90;;
51664;SDS011;37751;52.408;12.536;2022-10-24T03:49:46;6.03;;;3.80;;
51664;SDS011;37751;52.408;12.536;2022-10-24T03:52:13;6.57;;;4.18;;
51664;SDS011;37751;52.408;12.536;2022-10-24T03:54:40;5.93;;;3.42;;
51664;SDS011;37751;52.408;12.536;2022-10-24T03:57:07;11.10;;;4.05;;
51664;SDS011;37751;52.408;12.536;2022-10-24T03:59:35;7.38;;;4.47;;
51664;SDS011;37751;52.408;12.536;2022-10-24T04:02:02;7.72;;;3.83;;
51664;SDS011;37751;52.408;12.536;2022-10-24T04:04:29;6.63;;;4.10;;
51664;SDS011;37751;52.408;12.536;2022-10-24T04:06:56;6.45;;;4.50;;
51664;SDS011;37751;52.408;12.536;2022-10-24T04:09:25;10.00;;;4.80;;
51664;SDS011;37751;52.408;12.536;2022-10-24T04:11:53;8.40;;;4.25;;
51664;SDS011;37751;52.408;12.536;2022-10-24T04:14:20;7.15;;;4.18;;
51664;SDS011;37751;52.408;12.536;2022-10-24T04:16:46;7.10;;;3.92;;
51664;SDS011;37751;52.408;12.536;2022-10-24T04:19:13;7.32;;;4.18;;
51664;SDS011;37751;52.408;12.536;2022-10-24T04:21:43;11.38;;;4.13;;
51664;SDS011;37751;52.408;12.536;2022-10-24T04:24:13;13.07;;;4.68;;
51664;SDS011;37751;52.408;12.536;2022-10-24T04:26:40;9.63;;;4.47;;
51664;SDS011;37751;52.408;12.536;2022-10-24T04:29:07;9.23;;;4.93;;
51664;SDS011;37751;52.408;12.536;2022-10-24T04:31:34;12.63;;;4.65;;
51664;SDS011;37751;52.408;12.536;2022-10-24T04:34:00;9.90;;;4.10;;
51664;SDS011;37751;52.408;12.536;2022-10-24T04:36:27;16.50;;;4.82;;
51664;SDS011;37751;52.408;12.536;2022-10-24T04:38:53;10.25;;;4.35;;
51664;SDS011;37751;52.408;12.536;2022-10-24T04:41:21;8.90;;;4.43;;
51664;SDS011;37751;52.408;12.536;2022-10-24T04:43:47;14.38;;;5.15;;
51664;SDS011;37751;52.408;12.536;2022-10-24T04:46:14;8.43;;;4.70;;
51664;SDS011;37751;52.408;12.536;2022-10-24T04:48:41;7.25;;;4.60;;
51664;SDS011;37751;52.408;12.536;2022-10-24T04:51:07;8.55;;;4.65;;
51664;SDS011;37751;52.408;12.536;2022-10-24T04:53:34;11.27;;;4.32;;
51664;SDS011;37751;52.408;12.536;2022-10-24T04:56:00;13.05;;;4.35;;
51664;SDS011;37751;52.408;12.536;2022-10-24T04:58:27;11.68;;;5.70;;
51664;SDS011;37751;52.408;12.536;2022-10-24T05:00:54;9.40;;;4.25;;
51664;SDS011;37751;52.408;12.536;2022-10-24T05:03:20;8.40;;;4.95;;
51664;SDS011;37751;52.408;12.536;2022-10-24T05:05:48;10.73;;;4.60;;
51664;SDS011;37751;52.408;12.536;2022-10-24T05:08:15;8.10;;;5.00;;
51664;SDS011;37751;52.408;12.536;2022-10-24T05:10:43;7.47;;;4.30;;
51664;SDS011;37751;52.408;12.536;2022-10-24T05:13:09;15.07;;;4.38;;
51664;SDS011;37751;52.408;12.536;2022-10-24T05:15:36;11.38;;;4.68;;
51664;SDS011;37751;52.408;12.536;2022-10-24T05:18:03;9.63;;;4.50;;
51664;SDS011;37751;52.408;12.536;2022-10-24T05:20:30;9.25;;;3.97;;
51664;SDS011;37751;52.408;12.536;2022-10-24T05:22:57;14.13;;;4.40;;
51664;SDS011;37751;52.408;12.536;2022-10-24T05:25:23;9.68;;;3.80;;
51664;SDS011;37751;52.408;12.536;2022-10-24T05:27:50;15.27;;;4.60;;
51664;SDS011;37751;52.408;12.536;2022-10-24T05:30:17;12.20;;;4.15;;
51664;SDS011;37751;52.408;12.536;2022-10-24T05:32:43;10.40;;;4.32;;
51664;SDS011;37751;52.408;12.536;2022-10-24T05:35:11;16.02;;;4.65;;
51664;SDS011;37751;52.408;12.536;2022-10-24T05:37:38;14.05;;;4.20;;
51664;SDS011;37751;52.408;12.536;2022-10-24T05:40:08;16.25;;;4.45;;
51664;SDS011;37751;52.408;12.536;2022-10-24T05:42:36;9.15;;;4.40;;
51664;SDS011;37751;52.408;12.536;2022-10-24T05:45:07;14.13;;;4.60;;
51664;SDS011;37751;52.408;12.536;2022-10-24T05:47:35;11.27;;;4.82;;
51664;SDS011;37751;52.408;12.536;2022-10-24T05:50:03;17.38;;;4.15;;
51664;SDS011;37751;52.408;12.536;2022-10-24T05:52:31;20.77;;;4.10;;
51664;SDS011;37751;52.408;12.536;2022-10-24T05:54:57;10.98;;;4.35;;
51664;SDS011;37751;52.408;12.536;2022-10-24T05:57:33;14.13;;;4.32;;
51664;SDS011;37751;52.408;12.536;2022-10-24T06:00:02;13.05;;;3.97;;
51664;SDS011;37751;52.408;12.536;2022-10-24T06:02:33;16.00;;;4.30;;
51664;SDS011;37751;52.408;12.536;2022-10-24T06:05:00;13.45;;;4.25;;
51664;SDS011;37751;52.408;12.536;2022-10-24T06:07:27;15.38;;;4.20;;
51664;SDS011;37751;52.408;12.536;2022-10-24T06:09:53;11.48;;;3.60;;
51664;SDS011;37751;52.408;12.536;2022-10-24T06:12:20;10.30;;;4.28;;
51664;SDS011;37751;52.408;12.536;2022-10-24T06:14:47;12.32;;;4.03;;
51664;SDS011;37751;52.408;12.536;2022-10-24T06:17:13;12.48;;;3.85;;
51664;SDS011;37751;52.408;12.536;2022-10-24T06:19:40;15.65;;;4.00;;
51664;SDS011;37751;52.408;12.536;2022-10-24T06:22:07;12.55;;;3.63;;
51664;SDS011;37751;52.408;12.536;2022-10-24T06:24:34;11.85;;;4.07;;
51664;SDS011;37751;52.408;12.536;2022-10-24T06:27:03;11.68;;;3.70;;
51664;SDS011;37751;52.408;12.536;2022-10-24T06:29:30;13.25;;;4.28;;
51664;SDS011;37751;52.408;12.536;2022-10-24T06:31:58;17.83;;;4.35;;
51664;SDS011;37751;52.408;12.536;2022-10-24T06:34:24;11.63;;;3.83;;
51664;SDS011;37751;52.408;12.536;2022-10-24T06:36:51;15.07;;;4.22;;
51664;SDS011;37751;52.408;12.536;2022-10-24T06:39:18;10.55;;;4.32;;
51664;SDS011;37751;52.408;12.536;2022-10-24T06:41:45;8.82;;;3.60;;
51664;SDS011;37751;52.408;12.536;2022-10-24T06:44:11;14.05;;;4.55;;
51664;SDS011;37751;52.408;12.536;2022-10-24T06:46:38;9.30;;;3.80;;
51664;SDS011;37751;52.408;12.536;2022-10-24T06:49:05;15.82;;;3.80;;
51664;SDS011;37751;52.408;12.536;2022-10-24T06:51:31;11.65;;;3.92;;
51664;SDS011;37751;52.408;12.536;2022-10-24T06:53:58;14.80;;;3.97;;
51664;SDS011;37751;52.408;12.536;2022-10-24T06:56:25;11.93;;;3.63;;
51664;SDS011;37751;52.408;12.536;2022-10-24T06:58:52;17.33;;;4.20;;
51664;SDS011;37751;52.408;12.536;2022-10-24T07:01:21;15.30;;;4.07;;
51664;SDS011;37751;52.408;12.536;2022-10-24T07:03:50;17.05;;;3.90;;
51664;SDS011;37751;52.408;12.536;2022-10-24T07:06:18;7.35;;;3.55;;
51664;SDS011;37751;52.408;12.536;2022-10-24T07:08:49;10.98;;;3.83;;
51664;SDS011;37751;52.408;12.536;2022-10-24T07:11:18;14.93;;;3.53;;
51664;SDS011;37751;52.408;12.536;2022-10-24T07:13:45;12.00;;;3.38;;
51664;SDS011;37751;52.408;12.536;2022-10-24T07:16:12;8.95;;;3.75;;
51664;SDS011;37751;52.408;12.536;2022-10-24T07:18:39;17.80;;;3.50;;
51664;SDS011;37751;52.408;12.536;2022-10-24T07:21:08;14.60;;;3.72;;
51664;SDS011;37751;52.408;12.536;2022-10-24T07:23:45;9.63;;;3.63;;
51664;SDS011;37751;52.408;12.536;2022-10-24T07:26:14;10.90;;;2.95;;
51664;SDS011;37751;52.408;12.536;2022-10-24T07:28:41;12.57;;;3.58;;
51664;SDS011;37751;52.408;12.536;2022-10-24T07:31:12;13.45;;;3.15;;
51664;SDS011;37751;52.408;12.536;2022-10-24T07:33:43;12.20;;;3.22;;
51664;SDS011;37751;52.408;12.536;2022-10-24T07:36:09;14.77;;;2.88;;
51664;SDS011;37751;52.408;12.536;2022-10-24T07:38:41;12.13;;;3.28;;
51664;SDS011;37751;52.408;12.536;2022-10-24T07:41:08;11.50;;;2.78;;
51664;SDS011;37751;52.408;12.536;2022-10-24T07:43:35;7.68;;;3.15;;
51664;SDS011;37751;52.408;12.536;2022-10-24T07:46:06;12.88;;;3.10;;
51664;SDS011;37751;52.408;12.536;2022-10-24T07:48:34;14.68;;;2.92;;
51664;SDS011;37751;52.408;12.536;2022-10-24T07:51:04;13.57;;;2.90;;
51664;SDS011;37751;52.408;12.536;2022-10-24T07:53:32;12.75;;;3.13;;
51664;SDS011;37751;52.408;12.536;2022-10-24T07:55:59;11.68;;;3.33;;
51664;SDS011;37751;52.408;12.536;2022-10-24T07:58:26;12.40;;;2.70;;
51664;SDS011;37751;52.408;12.536;2022-10-24T08:00:53;18.95;;;4.40;;
51664;SDS011;37751;52.408;12.536;2022-10-24T08:03:20;8.15;;;3.03;;
51664;SDS011;37751;52.408;12.536;2022-10-24T08:05:47;9.50;;;3.28;;
51664;SDS011;37751;52.408;12.536;2022-10-24T08:08:14;12.40;;;3.50;;
51664;SDS011;37751;52.408;12.536;2022-10-24T08:11:00;10.52;;;2.92;;
51664;SDS011;37751;52.408;12.536;2022-10-24T08:13:35;15.70;;;2.80;;
51664;SDS011;37751;52.408;12.536;2022-10-24T08:16:06;10.15;;;2.90;;
51664;SDS011;37751;52.408;12.536;2022-10-24T08:18:36;15.38;;;2.85;;
51664;SDS011;37751;52.408;12.536;2022-10-24T08:21:06;13.95;;;2.78;;
51664;SDS011;37751;52.408;12.536;2022-10-24T08:23:37;9.15;;;2.75;;
51664;SDS011;37751;52.408;12.536;2022-10-24T08:26:07;8.50;;;2.90;;
51664;SDS011;37751;52.408;12.536;2022-10-24T08:28:35;7.72;;;2.42;;
51664;SDS011;37751;52.408;12.536;2022-10-24T08:31:03;15.82;;;2.92;;
51664;SDS011;37751;52.408;12.536;2022-10-24T08:33:33;23.50;;;3.55;;
51664;SDS011;37751;52.408;12.536;2022-10-24T08:36:04;7.82;;;2.65;;
51664;SDS011;37751;52.408;12.536;2022-10-24T08:38:44;13.60;;;2.53;;
51664;SDS011;37751;52.408;12.536;2022-10-24T08:41:15;11.77;;;2.58;;
51664;SDS011;37751;52.408;12.536;2022-10-24T08:43:56;12.40;;;2.67;;
51664;SDS011;37751;52.408;12.536;2022-10-24T08:46:31;11.70;;;2.47;;
51664;SDS011;37751;52.408;12.536;2022-10-24T08:49:46;18.30;;;2.45;;
51664;SDS011;37751;52.408;12.536;2022-10-24T08:52:44;12.88;;;2.97;;
51664;SDS011;37751;52.408;12.536;2022-10-24T08:55:29;12.88;;;2.63;;
51664;SDS011;37751;52.408;12.536;2022-10-24T09:01:01;17.50;;;2.83;;
51664;SDS011;37751;52.408;12.536;2022-10-24T09:03:35;23.55;;;3.00;;
51664;SDS011;37751;52.408;12.536;2022-10-24T09:06:23;10.20;;;2.70;;
51664;SDS011;37751;52.408;12.536;2022-10-24T09:08:53;13.27;;;2.53;;
51664;SDS011;37751;52.408;12.536;2022-10-24T09:14:20;13.50;;;2.15;;
51664;SDS011;37751;52.408;12.536;2022-10-24T09:16:56;13.65;;;2.50;;
51664;SDS011;37751;52.408;12.536;2022-10-24T09:19:55;10.00;;;2.25;;
51664;SDS011;37751;52.408;12.536;2022-10-24T09:22:41;14.57;;;2.50;;
51664;SDS011;37751;52.408;12.536;2022-10-24T09:25:14;7.05;;;2.40;;
51664;SDS011;37751;52.408;12.536;2022-10-24T09:27:45;13.63;;;2.50;;
51664;SDS011;37751;52.408;12.536;2022-10-24T09:30:17;7.70;;;2.42;;
51664;SDS011;37751;52.408;12.536;2022-10-24T09:32:47;9.18;;;2.53;;
51664;SDS011;37751;52.408;12.536;2022-10-24T09:35:18;9.90;;;2.75;;
51664;SDS011;37751;52.408;12.536;2022-10-24T09:40:48;13.20;;;2.10;;
51664;SDS011;37751;52.408;12.536;2022-10-24T09:43:20;14.85;;;2.47;;
51664;SDS011;37751;52.408;12.536;2022-10-24T09:46:00;14.88;;;2.47;;
51664;SDS011;37751;52.408;12.536;2022-10-24T09:51:34;8.70;;;2.55;;
51664;SDS011;37751;52.408;12.536;2022-10-24T09:54:21;13.77;;;2.22;;
51664;SDS011;37751;52.408;12.536;2022-10-24T10:07:30;9.80;;;2.13;;
51664;SDS011;37751;52.408;12.536;2022-10-24T10:10:21;8.75;;;2.60;;
51664;SDS011;37751;52.408;12.536;2022-10-24T10:13:00;12.18;;;2.45;;
51664;SDS011;37751;52.408;12.536;2022-10-24T10:15:52;9.90;;;2.10;;
51664;SDS011;37751;52.408;12.536;2022-10-24T10:18:30;12.45;;;2.88;;
51664;SDS011;37751;52.408;12.536;2022-10-24T10:23:47;11.80;;;2.13;;
51664;SDS011;37751;52.408;12.536;2022-10-24T10:31:43;8.82;;;2.15;;
51664;SDS011;37751;52.408;12.536;2022-10-24T10:34:19;15.90;;;2.22;;
51664;SDS011;37751;52.408;12.536;2022-10-24T10:36:59;14.32;;;2.25;;
51664;SDS011;37751;52.408;12.536;2022-10-24T11:01:46;15.73;;;2.45;;
51664;SDS011;37751;52.408;12.536;2022-10-24T11:04:36;14.32;;;3.20;;
51664;SDS011;37751;52.408;12.536;2022-10-24T11:11:02;7.82;;;2.03;;
51664;SDS011;37751;52.408;12.536;2022-10-24T11:13:34;7.25;;;1.88;;
51664;SDS011;37751;52.408;12.536;2022-10-24T11:16:11;14.93;;;2.88;;
51664;SDS011;37751;52.408;12.536;2022-10-24T11:18:47;9.73;;;2.20;;
51664;SDS011;37751;52.408;12.536;2022-10-24T11:21:18;8.52;;;2.13;;
51664;SDS011;37751;52.408;12.536;2022-10-24T11:23:52;9.02;;;2.45;;
51664;SDS011;37751;52.408;12.536;2022-10-24T11:26:29;7.13;;;1.80;;
51664;SDS011;37751;52.408;12.536;2022-10-24T11:29:10;18.83;;;2.75;;
51664;SDS011;37751;52.408;12.536;2022-10-24T11:31:46;15.48;;;2.40;;
51664;SDS011;37751;52.408;12.536;2022-10-24T11:34:20;11.18;;;2.33;;
51664;SDS011;37751;52.408;12.536;2022-10-24T11:36:55;13.85;;;2.25;;
51664;SDS011;37751;52.408;12.536;2022-10-24T11:39:32;7.47;;;1.63;;
51664;SDS011;37751;52.408;12.536;2022-10-24T11:42:20;17.90;;;2.80;;
51664;SDS011;37751;52.408;12.536;2022-10-24T11:45:15;16.17;;;2.40;;
51664;SDS011;37751;52.408;12.536;2022-10-24T11:56:30;9.70;;;1.80;;
51664;SDS011;37751;52.408;12.536;2022-10-24T11:59:06;12.20;;;2.25;;
51664;SDS011;37751;52.408;12.536;2022-10-24T12:04:26;10.07;;;2.10;;
51664;SDS011;37751;52.408;12.536;2022-10-24T12:10:22;11.32;;;1.95;;
51664;SDS011;37751;52.408;12.536;2022-10-24T12:13:25;9.55;;;1.75;;
51664;SDS011;37751;52.408;12.536;2022-10-24T12:16:31;10.32;;;1.67;;
51664;SDS011;37751;52.408;12.536;2022-10-24T12:19:15;14.23;;;2.65;;
51664;SDS011;37751;52.408;12.536;2022-10-24T12:21:46;10.93;;;1.80;;
51664;SDS011;37751;52.408;12.536;2022-10-24T12:24:32;7.60;;;2.08;;
51664;SDS011;37751;52.408;12.536;2022-10-24T12:27:02;11.23;;;2.63;;
51664;SDS011;37751;52.408;12.536;2022-10-24T12:29:45;13.00;;;2.40;;
51664;SDS011;37751;52.408;12.536;2022-10-24T12:32:40;9.50;;;2.00;;
51664;SDS011;37751;52.408;12.536;2022-10-24T12:38:00;5.85;;;1.52;;
51664;SDS011;37751;52.408;12.536;2022-10-24T12:43:27;12.82;;;2.17;;
51664;SDS011;37751;52.408;12.536;2022-10-24T12:51:36;12.10;;;1.80;;
51664;SDS011;37751;52.408;12.536;2022-10-24T12:59:17;7.00;;;1.65;;
51664;SDS011;37751;52.408;12.536;2022-10-24T13:02:38;8.60;;;1.85;;
51664;SDS011;37751;52.408;12.536;2022-10-24T13:10:09;4.00;;;1.50;;
51664;SDS011;37751;52.408;12.536;2022-10-24T13:16:15;12.60;;;1.98;;
51664;SDS011;37751;52.408;12.536;2022-10-24T13:21:48;12.45;;;1.88;;
51664;SDS011;37751;52.408;12.536;2022-10-24T13:34:44;8.50;;;1.95;;
51664;SDS011;37751;52.408;12.536;2022-10-24T13:37:26;7.50;;;1.45;;
51664;SDS011;37751;52.408;12.536;2022-10-24T13:40:15;10.73;;;1.80;;
51664;SDS011;37751;52.408;12.536;2022-10-24T13:43:01;12.80;;;1.75;;
51664;SDS011;37751;52.408;12.536;2022-10-24T13:48:19;7.40;;;1.48;;
51664;SDS011;37751;52.408;12.536;2022-10-24T13:51:02;7.40;;;1.90;;
51664;SDS011;37751;52.408;12.536;2022-10-24T13:53:45;13.60;;;2.40;;
51664;SDS011;37751;52.408;12.536;2022-10-24T13:56:18;7.45;;;2.13;;
51664;SDS011;37751;52.408;12.536;2022-10-24T13:58:45;12.70;;;1.85;;
51664;SDS011;37751;52.408;12.536;2022-10-24T14:01:25;8.25;;;1.63;;
51664;SDS011;37751;52.408;12.536;2022-10-24T14:03:56;13.15;;;2.10;;
51664;SDS011;37751;52.408;12.536;2022-10-24T14:06:28;9.63;;;1.80;;
51664;SDS011;37751;52.408;12.536;2022-10-24T14:08:59;5.78;;;1.65;;
51664;SDS011;37751;52.408;12.536;2022-10-24T14:11:41;12.82;;;2.42;;
51664;SDS011;37751;52.408;12.536;2022-10-24T14:17:06;4.00;;;1.77;;
51664;SDS011;37751;52.408;12.536;2022-10-24T14:19:59;11.73;;;2.28;;
51664;SDS011;37751;52.408;12.536;2022-10-24T14:22:39;7.18;;;1.85;;
51664;SDS011;37751;52.408;12.536;2022-10-24T14:25:52;23.35;;;2.65;;
51664;SDS011;37751;52.408;12.536;2022-10-24T14:28:14;11.00;;;1.50;;
51664;SDS011;37751;52.408;12.536;2022-10-24T14:30:52;10.10;;;2.00;;
51664;SDS011;37751;52.408;12.536;2022-10-24T14:33:28;9.52;;;1.77;;
51664;SDS011;37751;52.408;12.536;2022-10-24T14:36:00;12.02;;;2.72;;
51664;SDS011;37751;52.408;12.536;2022-10-24T14:38:28;12.20;;;1.90;;
51664;SDS011;37751;52.408;12.536;2022-10-24T14:40:55;12.57;;;1.80;;
51664;SDS011;37751;52.408;12.536;2022-10-24T14:43:34;10.23;;;1.75;;
51664;SDS011;37751;52.408;12.536;2022-10-24T14:48:47;10.23;;;1.95;;
51664;SDS011;37751;52.408;12.536;2022-10-24T14:51:21;6.40;;;1.70;;
51664;SDS011;37751;52.408;12.536;2022-10-24T14:54:10;5.28;;;1.67;;
51664;SDS011;37751;52.408;12.536;2022-10-24T14:56:47;12.52;;;2.30;;
51664;SDS011;37751;52.408;12.536;2022-10-24T14:59:35;15.60;;;2.20;;
51664;SDS011;37751;52.408;12.536;2022-10-24T15:02:05;8.02;;;1.90;;
51664;SDS011;37751;52.408;12.536;2022-10-24T15:07:50;11.25;;;3.08;;
51664;SDS011;37751;52.408;12.536;2022-10-24T15:10:41;11.30;;;2.08;;
51664;SDS011;37751;52.408;12.536;2022-10-24T15:13:10;7.68;;;2.17;;
51664;SDS011;37751;52.408;12.536;2022-10-24T15:18:19;13.20;;;2.22;;
51664;SDS011;37751;52.408;12.536;2022-10-24T15:20:49;9.02;;;2.92;;
51664;SDS011;37751;52.408;12.536;2022-10-24T15:23:25;17.35;;;3.05;;
51664;SDS011;37751;52.408;12.536;2022-10-24T15:31:43;4.72;;;2.00;;
51664;SDS011;37751;52.408;12.536;2022-10-24T15:34:15;14.55;;;4.35;;
51664;SDS011;37751;52.408;12.536;2022-10-24T15:36:45;10.02;;;2.58;;
51664;SDS011;37751;52.408;12.536;2022-10-24T15:39:14;12.68;;;3.33;;
51664;SDS011;37751;52.408;12.536;2022-10-24T15:41:46;15.82;;;3.20;;
51664;SDS011;37751;52.408;12.536;2022-10-24T15:44:14;13.45;;;2.15;;
51664;SDS011;37751;52.408;12.536;2022-10-24T15:46:56;18.25;;;3.83;;
51664;SDS011;37751;52.408;12.536;2022-10-24T15:49:22;26.10;;;5.57;;
51664;SDS011;37751;52.408;12.536;2022-10-24T15:51:49;12.63;;;4.60;;
51664;SDS011;37751;52.408;12.536;2022-10-24T15:54:17;12.35;;;2.60;;
51664;SDS011;37751;52.408;12.536;2022-10-24T15:56:47;9.80;;;2.90;;
51664;SDS011;37751;52.408;12.536;2022-10-24T15:59:15;13.93;;;2.55;;
51664;SDS011;37751;52.408;12.536;2022-10-24T16:01:44;10.60;;;3.83;;
51664;SDS011;37751;52.408;12.536;2022-10-24T16:04:16;12.00;;;2.85;;
51664;SDS011;37751;52.408;12.536;2022-10-24T16:06:43;11.13;;;2.50;;
51664;SDS011;37751;52.408;12.536;2022-10-24T16:09:13;10.48;;;2.28;;
51664;SDS011;37751;52.408;12.536;2022-10-24T16:11:45;9.30;;;2.35;;
51664;SDS011;37751;52.408;12.536;2022-10-24T16:14:13;11.52;;;2.95;;
51664;SDS011;37751;52.408;12.536;2022-10-24T16:16:43;16.67;;;3.00;;
51664;SDS011;37751;52.408;12.536;2022-10-24T16:19:10;10.70;;;2.53;;
51664;SDS011;37751;52.408;12.536;2022-10-24T16:21:37;8.50;;;2.50;;
51664;SDS011;37751;52.408;12.536;2022-10-24T16:24:06;9.85;;;2.85;;
51664;SDS011;37751;52.408;12.536;2022-10-24T16:26:34;14.13;;;4.05;;
51664;SDS011;37751;52.408;12.536;2022-10-24T16:29:01;12.30;;;2.65;;
51664;SDS011;37751;52.408;12.536;2022-10-24T16:31:28;7.03;;;2.25;;
51664;SDS011;37751;52.408;12.536;2022-10-24T16:33:55;8.43;;;1.95;;
51664;SDS011;37751;52.408;12.536;2022-10-24T16:36:24;7.20;;;1.67;;
51664;SDS011;37751;52.408;12.536;2022-10-24T16:38:51;6.70;;;2.00;;
51664;SDS011;37751;52.408;12.536;2022-10-24T16:41:20;8.90;;;2.50;;
51664;SDS011;37751;52.408;12.536;2022-10-24T16:43:49;8.02;;;2.10;;
51664;SDS011;37751;52.408;12.536;2022-10-24T16:46:19;10.25;;;2.85;;
51664;SDS011;37751;52.408;12.536;2022-10-24T16:48:46;9.23;;;2.13;;
51664;SDS011;37751;52.408;12.536;2022-10-24T16:51:14;12.23;;;2.05;;
51664;SDS011;37751;52.408;12.536;2022-10-24T16:54:06;6.38;;;1.75;;
51664;SDS011;37751;52.408;12.536;2022-10-24T16:56:33;10.38;;;2.75;;
51664;SDS011;37751;52.408;12.536;2022-10-24T16:58:59;12.80;;;2.10;;
51664;SDS011;37751;52.408;12.536;2022-10-24T17:01:26;9.63;;;2.35;;
51664;SDS011;37751;52.408;12.536;2022-10-24T17:03:53;6.65;;;1.92;;
51664;SDS011;37751;52.408;12.536;2022-10-24T17:06:20;7.13;;;2.55;;
51664;SDS011;37751;52.408;12.536;2022-10-24T17:08:47;7.88;;;2.03;;
51664;SDS011;37751;52.408;12.536;2022-10-24T17:11:14;6.10;;;2.00;;
51664;SDS011;37751;52.408;12.536;2022-10-24T17:14:01;6.47;;;1.67;;
51664;SDS011;37751;52.408;12.536;2022-10-24T17:16:27;10.50;;;1.85;;
51664;SDS011;37751;52.408;12.536;2022-10-24T17:18:54;6.97;;;1.73;;
51664;SDS011;37751;52.408;12.536;2022-10-24T17:21:40;8.40;;;1.50;;
51664;SDS011;37751;52.408;12.536;2022-10-24T17:24:08;7.68;;;1.80;;
51664;SDS011;37751;52.408;12.536;2022-10-24T17:26:37;7.55;;;2.05;;
51664;SDS011;37751;52.408;12.536;2022-10-24T17:29:04;9.23;;;1.80;;